Time;durP1;ratioP1;P1;durP2;ratioP2;P2;SDS_P1;SDS_P2;PMS_P1;PMS_P2;Temp;Humidity;BMP_temperature;BMP_pressure;BME280_temperature;BME280_humidity;BME280_pressure;Samples;Min_cycle;Max_cycle;Signal;HPM_P1;HPM_P2
2021/05/30 00:00:29;;;;;;;10.10;5.10;;;;;;;;;;5053076;28;20931;-70
2021/05/30 00:02:55;;;;;;;7.47;5.03;;;;;;;;;;5072083;28;20416;-72
2021/05/30 00:05:22;;;;;;;8.83;4.73;;;;;;;;;;5071789;28;20417;-73
2021/05/30 00:07:48;;;;;;;8.90;5.37;;;;;;;;;;5071780;28;20920;-72
2021/05/30 00:10:14;;;;;;;7.50;5.40;;;;;;;;;;5072864;28;20490;-71
2021/05/30 00:12:40;;;;;;;6.93;5.10;;;;;;;;;;5053898;28;20788;-73
2021/05/30 00:15:09;;;;;;;7.50;4.43;;;;;;;;;;5073195;28;20763;-72
2021/05/30 00:17:35;;;;;;;5.83;3.90;;;;;;;;;;5053909;28;20480;-71
2021/05/30 00:20:01;;;;;;;6.10;4.10;;;;;;;;;;5050688;28;20472;-72
2021/05/30 00:22:27;;;;;;;6.83;5.30;;;;;;;;;;5067122;28;20413;-72
2021/05/30 00:24:53;;;;;;;6.50;4.53;;;;;;;;;;5071784;28;20478;-72
2021/05/30 00:27:20;;;;;;;7.80;5.10;;;;;;;;;;5071497;28;20471;-73
2021/05/30 00:29:46;;;;;;;6.60;5.20;;;;;;;;;;5072984;28;20801;-73
2021/05/30 00:32:12;;;;;;;6.47;4.80;;;;;;;;;;5071628;28;20440;-72
2021/05/30 00:34:38;;;;;;;7.20;5.30;;;;;;;;;;5072566;28;20393;-72
2021/05/30 00:37:04;;;;;;;7.63;5.40;;;;;;;;;;5071553;28;20445;-72
2021/05/30 00:39:30;;;;;;;6.13;5.00;;;;;;;;;;5072555;28;20867;-72
2021/05/30 00:41:56;;;;;;;7.80;4.77;;;;;;;;;;5062228;28;20453;-72
2021/05/30 00:44:29;;;;;;;8.47;5.77;;;;;;;;;;5052801;28;20453;-72
2021/05/30 00:46:56;;;;;;;10.37;5.90;;;;;;;;;;5055124;28;20444;-72
2021/05/30 00:49:23;;;;;;;8.23;6.50;;;;;;;;;;5052431;28;20451;-72
2021/05/30 00:51:49;;;;;;;11.87;5.80;;;;;;;;;;5063573;28;20913;-72
2021/05/30 00:54:15;;;;;;;9.23;5.90;;;;;;;;;;5076343;28;20538;-72
2021/05/30 00:56:42;;;;;;;8.90;6.40;;;;;;;;;;5068519;28;20467;-72
2021/05/30 00:59:09;;;;;;;8.57;7.07;;;;;;;;;;5070755;28;20435;-72
2021/05/30 01:01:35;;;;;;;11.17;6.43;;;;;;;;;;5053649;28;20450;-72
2021/05/30 01:04:01;;;;;;;11.93;6.40;;;;;;;;;;5056172;28;20402;-72
2021/05/30 01:06:28;;;;;;;10.83;5.93;;;;;;;;;;5042525;28;20474;-72
2021/05/30 01:08:54;;;;;;;8.90;6.63;;;;;;;;;;5076182;28;20401;-72
2021/05/30 01:11:22;;;;;;;8.90;6.20;;;;;;;;;;5074856;28;20417;-72
2021/05/30 01:13:49;;;;;;;11.53;6.67;;;;;;;;;;5075853;28;20400;-72
2021/05/30 01:16:15;;;;;;;13.93;6.57;;;;;;;;;;5074766;28;20417;-73
2021/05/30 01:18:42;;;;;;;10.90;6.70;;;;;;;;;;5075964;28;20425;-72
2021/05/30 01:21:08;;;;;;;13.90;7.43;;;;;;;;;;5075693;28;20448;-73
2021/05/30 01:23:34;;;;;;;14.23;7.87;;;;;;;;;;5073829;28;20428;-70
2021/05/30 01:26:00;;;;;;;11.03;6.17;;;;;;;;;;5075562;28;20890;-70
2021/05/30 01:28:26;;;;;;;10.43;6.20;;;;;;;;;;5074403;28;20472;-71
2021/05/30 01:30:52;;;;;;;8.40;5.80;;;;;;;;;;5075863;28;20799;-70
2021/05/30 01:33:19;;;;;;;11.60;7.30;;;;;;;;;;5073795;28;20952;-71
2021/05/30 01:35:45;;;;;;;9.83;6.03;;;;;;;;;;5075841;28;20408;-71
2021/05/30 01:38:11;;;;;;;17.53;6.80;;;;;;;;;;5061885;28;20579;-71
2021/05/30 01:40:38;;;;;;;12.27;7.13;;;;;;;;;;5055283;28;20441;-71
2021/05/30 01:43:04;;;;;;;12.10;6.23;;;;;;;;;;5066854;28;20417;-73
2021/05/30 01:45:30;;;;;;;11.13;6.43;;;;;;;;;;5075539;28;20486;-73
2021/05/30 01:47:57;;;;;;;10.73;5.57;;;;;;;;;;5056096;28;20444;-73
2021/05/30 01:50:25;;;;;;;8.30;5.43;;;;;;;;;;5074201;28;20417;-72
2021/05/30 01:52:52;;;;;;;11.37;7.43;;;;;;;;;;5074074;28;20428;-72
2021/05/30 01:55:24;;;;;;;9.83;6.33;;;;;;;;;;5075190;28;20409;-73
2021/05/30 01:57:51;;;;;;;10.10;6.07;;;;;;;;;;5064942;28;20480;-72
2021/05/30 02:00:17;;;;;;;10.83;6.27;;;;;;;;;;5054924;28;20461;-70
2021/05/30 02:02:45;;;;;;;13.63;7.30;;;;;;;;;;5066889;28;20419;-69
2021/05/30 02:05:11;;;;;;;7.43;5.43;;;;;;;;;;5075001;28;20429;-70
2021/05/30 02:07:39;;;;;;;9.13;5.40;;;;;;;;;;5055977;28;20441;-70
2021/05/30 02:10:05;;;;;;;8.73;5.90;;;;;;;;;;5075013;28;20401;-70
2021/05/30 02:12:33;;;;;;;10.77;6.40;;;;;;;;;;5073728;28;20459;-70
2021/05/30 02:14:59;;;;;;;8.13;5.90;;;;;;;;;;5056829;28;20409;-70
2021/05/30 02:17:25;;;;;;;9.50;6.47;;;;;;;;;;5073684;28;20440;-70
2021/05/30 02:19:52;;;;;;;9.93;6.33;;;;;;;;;;5074685;28;20495;-70
2021/05/30 02:22:18;;;;;;;13.47;6.60;;;;;;;;;;5073583;28;20428;-69
2021/05/30 02:24:45;;;;;;;15.30;7.50;;;;;;;;;;5074529;28;20401;-70
2021/05/30 02:27:11;;;;;;;11.43;6.23;;;;;;;;;;5087092;22;20494;-67
2021/05/30 02:29:38;;;;;;;7.40;5.60;;;;;;;;;;5074419;28;20889;-67
2021/05/30 02:32:06;;;;;;;9.80;5.87;;;;;;;;;;5054091;28;20464;-67
2021/05/30 02:34:32;;;;;;;9.03;5.87;;;;;;;;;;5056345;28;20413;-67
2021/05/30 02:36:58;;;;;;;9.40;6.00;;;;;;;;;;5071904;28;20416;-66
2021/05/30 02:39:24;;;;;;;7.40;5.23;;;;;;;;;;5054348;28;20898;-67
2021/05/30 02:41:51;;;;;;;7.00;5.23;;;;;;;;;;5035975;28;20473;-67
2021/05/30 02:44:17;;;;;;;8.17;5.83;;;;;;;;;;5031826;28;20429;-67
2021/05/30 02:46:43;;;;;;;6.83;4.90;;;;;;;;;;5033906;28;20580;-67
2021/05/30 02:49:09;;;;;;;7.60;4.90;;;;;;;;;;5038122;28;20787;-68
2021/05/30 02:51:35;;;;;;;9.60;5.20;;;;;;;;;;5033905;28;20746;-68
2021/05/30 02:54:01;;;;;;;8.80;5.10;;;;;;;;;;5033940;28;20422;-69
2021/05/30 02:56:28;;;;;;;11.60;5.83;;;;;;;;;;5045223;28;20593;-69
2021/05/30 02:58:54;;;;;;;6.80;4.73;;;;;;;;;;5057601;28;20441;-69
2021/05/30 03:01:20;;;;;;;6.93;4.87;;;;;;;;;;5073695;28;20440;-68
2021/05/30 03:03:47;;;;;;;7.97;5.13;;;;;;;;;;5053513;28;20566;-68
2021/05/30 03:06:14;;;;;;;7.07;5.10;;;;;;;;;;5033831;28;20399;-68
2021/05/30 03:08:40;;;;;;;6.37;4.50;;;;;;;;;;5049182;28;20467;-68
2021/05/30 03:11:06;;;;;;;8.00;4.70;;;;;;;;;;5073413;28;20412;-68
2021/05/30 03:13:32;;;;;;;7.30;5.37;;;;;;;;;;5071181;28;20424;-69
2021/05/30 03:15:58;;;;;;;9.53;6.10;;;;;;;;;;5073605;28;20424;-68
2021/05/30 03:18:25;;;;;;;7.13;5.30;;;;;;;;;;5071085;28;20449;-68
2021/05/30 03:20:51;;;;;;;7.77;5.63;;;;;;;;;;5073332;28;20857;-69
2021/05/30 03:23:17;;;;;;;7.90;5.30;;;;;;;;;;5071445;28;20482;-69
2021/05/30 03:25:43;;;;;;;6.37;4.20;;;;;;;;;;5073196;28;20405;-68
2021/05/30 03:28:10;;;;;;;7.23;4.77;;;;;;;;;;5063461;28;20945;-69
2021/05/30 03:30:36;;;;;;;10.70;5.10;;;;;;;;;;5053230;28;20413;-69
2021/05/30 03:33:02;;;;;;;6.97;5.07;;;;;;;;;;5035674;28;20490;-68
2021/05/30 03:35:29;;;;;;;10.63;5.27;;;;;;;;;;5073380;28;20412;-67
2021/05/30 03:37:57;;;;;;;5.83;4.40;;;;;;;;;;5070836;28;20773;-68
2021/05/30 03:42:51;;;;;;;9.10;5.17;;;;;;;;;;5072108;28;20869;-69
2021/05/30 03:45:17;;;;;;;7.03;5.10;;;;;;;;;;5033013;28;20410;-68
2021/05/30 03:47:43;;;;;;;5.83;4.43;;;;;;;;;;5069931;28;20496;-68
2021/05/30 03:50:09;;;;;;;6.30;4.50;;;;;;;;;;5071083;28;20448;-68
2021/05/30 03:52:36;;;;;;;5.90;4.47;;;;;;;;;;5055117;28;20431;-68
2021/05/30 03:55:02;;;;;;;6.33;4.97;;;;;;;;;;5071094;28;20435;-68
2021/05/30 03:57:28;;;;;;;8.27;5.50;;;;;;;;;;5073264;28;20433;-68
2021/05/30 03:59:54;;;;;;;5.83;4.73;;;;;;;;;;5034411;28;20430;-68
2021/05/30 04:02:20;;;;;;;5.43;4.57;;;;;;;;;;5033600;28;20763;-68
2021/05/30 04:04:46;;;;;;;5.90;4.10;;;;;;;;;;5044813;28;20487;-68
2021/05/30 04:07:12;;;;;;;6.17;4.73;;;;;;;;;;5052989;28;20414;-68
2021/05/30 04:09:38;;;;;;;6.93;3.93;;;;;;;;;;5043693;28;20427;-68
2021/05/30 04:12:04;;;;;;;7.87;4.80;;;;;;;;;;5015224;28;20403;-68
2021/05/30 04:14:30;;;;;;;4.60;3.87;;;;;;;;;;5032414;28;20434;-68
2021/05/30 04:16:56;;;;;;;6.87;5.00;;;;;;;;;;5032831;28;20891;-68
2021/05/30 04:19:22;;;;;;;5.33;4.70;;;;;;;;;;5034850;28;20438;-68
2021/05/30 04:21:48;;;;;;;5.70;3.93;;;;;;;;;;5052550;28;20456;-68
2021/05/30 04:24:14;;;;;;;8.10;4.37;;;;;;;;;;5052013;28;20440;-68
2021/05/30 04:26:40;;;;;;;6.40;4.17;;;;;;;;;;5075745;28;20405;-68
2021/05/30 04:29:06;;;;;;;8.80;4.43;;;;;;;;;;5076499;28;20940;-68
2021/05/30 04:31:33;;;;;;;5.70;4.30;;;;;;;;;;5037050;28;20513;-68
2021/05/30 04:33:59;;;;;;;6.27;5.57;;;;;;;;;;5034765;28;20460;-67
2021/05/30 04:36:25;;;;;;;6.73;4.30;;;;;;;;;;5054882;28;20429;-68
2021/05/30 04:38:51;;;;;;;5.30;3.77;;;;;;;;;;5057048;28;20483;-68
2021/05/30 04:41:17;;;;;;;6.60;4.50;;;;;;;;;;5068856;28;20551;-68
2021/05/30 04:43:43;;;;;;;5.07;4.13;;;;;;;;;;5074372;28;20429;-68
2021/05/30 04:46:09;;;;;;;10.33;4.97;;;;;;;;;;5074295;28;20819;-68
2021/05/30 04:48:35;;;;;;;6.83;4.27;;;;;;;;;;5076340;28;20416;-68
2021/05/30 04:51:34;;;;;;;6.77;4.33;;;;;;;;;;5062748;28;20466;-68
2021/05/30 04:53:55;;;;;;;6.20;4.50;;;;;;;;;;5052389;28;20431;-68
2021/05/30 04:56:22;;;;;;;5.37;4.53;;;;;;;;;;5049117;28;20509;-68
2021/05/30 04:58:49;;;;;;;7.70;3.80;;;;;;;;;;5036143;28;20520;-68
2021/05/30 05:01:15;;;;;;;6.40;4.63;;;;;;;;;;5061547;28;20466;-69
2021/05/30 05:03:41;;;;;;;12.10;4.20;;;;;;;;;;5076257;28;20417;-68
2021/05/30 05:06:07;;;;;;;6.60;4.23;;;;;;;;;;5074058;28;20459;-68
2021/05/30 05:08:33;;;;;;;5.67;4.70;;;;;;;;;;5075764;28;20413;-68
2021/05/30 05:10:59;;;;;;;6.03;4.40;;;;;;;;;;5073607;28;20506;-68
2021/05/30 05:13:26;;;;;;;11.87;5.23;;;;;;;;;;5076210;28;20409;-68
2021/05/30 05:15:53;;;;;;;6.90;4.03;;;;;;;;;;5054746;28;20423;-68
2021/05/30 05:18:23;;;;;;;5.87;4.23;;;;;;;;;;5018274;28;20442;-68
2021/05/30 05:20:50;;;;;;;5.70;3.70;;;;;;;;;;5043939;28;20816;-68
2021/05/30 05:23:17;;;;;;;8.20;4.90;;;;;;;;;;5056009;28;20398;-68
2021/05/30 05:25:43;;;;;;;7.80;4.80;;;;;;;;;;5054025;28;20421;-68
2021/05/30 05:28:10;;;;;;;8.20;5.03;;;;;;;;;;5055343;28;20498;-68
2021/05/30 05:30:36;;;;;;;5.67;4.40;;;;;;;;;;5036788;28;20538;-68
2021/05/30 05:33:03;;;;;;;5.57;4.57;;;;;;;;;;5055565;28;20436;-68
2021/05/30 05:35:29;;;;;;;6.97;4.77;;;;;;;;;;5054337;28;20456;-68
2021/05/30 05:37:56;;;;;;;7.57;4.67;;;;;;;;;;5055100;28;20414;-68
2021/05/30 05:40:23;;;;;;;5.73;4.33;;;;;;;;;;5036471;28;20453;-68
2021/05/30 05:42:50;;;;;;;5.67;4.17;;;;;;;;;;5055293;28;20429;-68
2021/05/30 05:45:17;;;;;;;10.50;4.17;;;;;;;;;;5051526;28;20448;-68
2021/05/30 05:47:43;;;;;;;5.73;4.50;;;;;;;;;;5037048;28;20496;-68
2021/05/30 05:50:13;;;;;;;5.00;4.40;;;;;;;;;;5052739;28;20485;-68
2021/05/30 05:52:40;;;;;;;5.10;3.60;;;;;;;;;;5035162;28;20438;-68
2021/05/30 05:55:07;;;;;;;6.50;3.90;;;;;;;;;;5035043;28;20473;-68
2021/05/30 05:57:33;;;;;;;5.07;3.33;;;;;;;;;;5034985;28;20796;-68
2021/05/30 05:59:59;;;;;;;5.70;4.10;;;;;;;;;;5034607;28;20427;-69
2021/05/30 06:02:25;;;;;;;6.13;3.40;;;;;;;;;;5035539;28;20415;-68
2021/05/30 06:04:51;;;;;;;5.37;4.40;;;;;;;;;;5034995;28;20481;-68
2021/05/30 06:07:17;;;;;;;5.40;4.07;;;;;;;;;;5036591;28;20449;-68
2021/05/30 06:09:44;;;;;;;5.50;3.70;;;;;;;;;;5034896;28;20403;-68
2021/05/30 06:12:10;;;;;;;6.20;3.80;;;;;;;;;;5051641;28;20928;-68
2021/05/30 06:14:36;;;;;;;5.70;4.80;;;;;;;;;;5054744;28;20406;-68
2021/05/30 06:17:03;;;;;;;7.77;4.30;;;;;;;;;;5035936;28;20426;-68
2021/05/30 06:19:29;;;;;;;6.00;4.37;;;;;;;;;;5054706;28;20394;-68
2021/05/30 06:21:55;;;;;;;6.73;4.20;;;;;;;;;;5053026;28;21014;-68
2021/05/30 06:24:21;;;;;;;5.57;4.00;;;;;;;;;;5054543;28;20775;-68
2021/05/30 06:26:47;;;;;;;6.80;4.10;;;;;;;;;;5053316;28;20430;-68
2021/05/30 06:29:13;;;;;;;7.13;4.70;;;;;;;;;;5054410;28;20911;-68
2021/05/30 06:31:39;;;;;;;7.17;4.20;;;;;;;;;;5041601;28;20525;-68
2021/05/30 06:34:07;;;;;;;5.10;3.67;;;;;;;;;;5034427;28;20928;-68
2021/05/30 06:36:33;;;;;;;6.03;4.80;;;;;;;;;;5034096;28;20923;-68
2021/05/30 06:38:59;;;;;;;5.80;3.50;;;;;;;;;;5016488;28;20435;-68
2021/05/30 06:41:25;;;;;;;6.50;4.87;;;;;;;;;;5043566;28;20834;-68
2021/05/30 06:43:52;;;;;;;5.50;3.70;;;;;;;;;;5053987;28;20417;-68
2021/05/30 06:46:19;;;;;;;6.03;4.20;;;;;;;;;;5052969;28;20440;-68
2021/05/30 06:48:45;;;;;;;6.80;4.20;;;;;;;;;;5053301;28;20429;-69
2021/05/30 06:51:16;;;;;;;7.97;4.70;;;;;;;;;;5035196;28;20430;-68
2021/05/30 06:53:45;;;;;;;6.07;3.63;;;;;;;;;;5053189;28;20371;-68
2021/05/30 06:56:11;;;;;;;5.40;3.90;;;;;;;;;;5043175;28;20917;-68
2021/05/30 06:58:37;;;;;;;4.63;3.63;;;;;;;;;;5053781;28;20518;-68
2021/05/30 07:01:03;;;;;;;10.17;6.00;;;;;;;;;;5047414;28;20493;-68
2021/05/30 07:03:29;;;;;;;7.90;6.00;;;;;;;;;;5034425;28;20415;-68
2021/05/30 07:05:55;;;;;;;5.90;3.97;;;;;;;;;;5036360;28;20426;-69
2021/05/30 07:08:21;;;;;;;8.43;4.33;;;;;;;;;;5035679;28;20444;-68
2021/05/30 07:10:47;;;;;;;6.87;3.60;;;;;;;;;;5034737;28;20870;-68
2021/05/30 07:13:13;;;;;;;5.40;4.17;;;;;;;;;;5053817;28;20769;-68
2021/05/30 07:15:40;;;;;;;7.83;3.40;;;;;;;;;;5052492;28;20405;-69
2021/05/30 07:18:06;;;;;;;7.30;4.47;;;;;;;;;;5053552;28;20985;-68
2021/05/30 07:20:32;;;;;;;6.03;3.90;;;;;;;;;;5052642;28;20531;-68
2021/05/30 07:22:58;;;;;;;7.30;4.13;;;;;;;;;;5054188;28;20402;-68
2021/05/30 07:25:24;;;;;;;5.97;4.47;;;;;;;;;;5053783;28;20409;-69
2021/05/30 07:27:53;;;;;;;5.67;3.80;;;;;;;;;;5045161;28;20454;-68
2021/05/30 07:30:19;;;;;;;6.20;4.03;;;;;;;;;;5033927;28;20406;-68
2021/05/30 07:32:45;;;;;;;4.77;3.40;;;;;;;;;;5052025;28;20429;-68
2021/05/30 07:35:12;;;;;;;6.00;3.80;;;;;;;;;;5053149;28;20401;-68
2021/05/30 07:37:38;;;;;;;5.60;3.67;;;;;;;;;;5052057;28;20454;-68
2021/05/30 07:40:05;;;;;;;8.10;3.70;;;;;;;;;;5053037;28;20929;-68
2021/05/30 07:42:31;;;;;;;5.90;4.50;;;;;;;;;;5036346;28;20522;-68
2021/05/30 07:44:57;;;;;;;4.60;3.37;;;;;;;;;;5033185;28;20431;-68
2021/05/30 07:47:24;;;;;;;4.93;3.70;;;;;;;;;;5033193;28;20501;-68
2021/05/30 07:49:50;;;;;;;4.30;3.00;;;;;;;;;;5033189;28;20494;-68
2021/05/30 07:52:16;;;;;;;6.03;3.33;;;;;;;;;;5046040;28;20425;-68
2021/05/30 07:54:42;;;;;;;6.50;4.33;;;;;;;;;;5052876;28;20402;-68
2021/05/30 07:57:09;;;;;;;6.20;3.77;;;;;;;;;;5050397;28;20488;-68
2021/05/30 07:59:35;;;;;;;3.80;2.90;;;;;;;;;;5052073;28;20406;-68
2021/05/30 08:02:01;;;;;;;5.83;3.77;;;;;;;;;;5041440;28;20450;-68
2021/05/30 08:04:27;;;;;;;4.60;3.40;;;;;;;;;;5033205;28;20876;-68
2021/05/30 08:06:53;;;;;;;4.50;3.50;;;;;;;;;;5042214;28;20417;-68
2021/05/30 08:09:20;;;;;;;3.30;2.73;;;;;;;;;;5053174;28;20433;-68
2021/05/30 08:11:46;;;;;;;3.17;2.60;;;;;;;;;;5051869;28;20433;-68
2021/05/30 08:14:12;;;;;;;3.90;2.50;;;;;;;;;;5052715;28;20406;-68
2021/05/30 08:16:40;;;;;;;3.87;2.50;;;;;;;;;;5052001;28;20521;-68
2021/05/30 08:19:07;;;;;;;4.10;3.33;;;;;;;;;;5052873;28;20509;-68
2021/05/30 08:21:33;;;;;;;3.27;2.50;;;;;;;;;;5046130;28;20485;-68
2021/05/30 08:23:59;;;;;;;3.17;2.20;;;;;;;;;;5014951;28;20465;-68
2021/05/30 08:26:25;;;;;;;4.10;2.80;;;;;;;;;;5037120;28;20426;-68
2021/05/30 08:28:51;;;;;;;4.60;2.97;;;;;;;;;;5052977;28;20445;-68
2021/05/30 08:31:17;;;;;;;4.07;2.80;;;;;;;;;;5051439;28;20465;-68
2021/05/30 08:33:43;;;;;;;3.10;2.47;;;;;;;;;;5052993;28;20839;-68
2021/05/30 08:36:09;;;;;;;3.27;1.90;;;;;;;;;;5050874;28;20441;-67
2021/05/30 08:38:35;;;;;;;4.83;2.67;;;;;;;;;;5034533;28;20448;-68
2021/05/30 08:41:01;;;;;;;3.87;2.60;;;;;;;;;;5051335;28;20491;-68
2021/05/30 08:43:28;;;;;;;3.50;2.73;;;;;;;;;;5052492;28;20488;-68
2021/05/30 08:45:54;;;;;;;3.20;2.40;;;;;;;;;;5034496;28;20468;-68
2021/05/30 08:48:20;;;;;;;3.63;2.60;;;;;;;;;;5051712;28;20454;-68
2021/05/30 08:51:05;;;;;;;3.10;2.30;;;;;;;;;;5052334;28;20406;-68
2021/05/30 08:53:32;;;;;;;2.83;2.10;;;;;;;;;;5032564;28;20429;-68
2021/05/30 08:55:58;;;;;;;3.10;2.70;;;;;;;;;;5032318;28;20399;-67
2021/05/30 08:58:37;;;;;;;3.93;2.27;;;;;;;;;;5052112;28;20802;-68
2021/05/30 09:01:10;;;;;;;4.10;3.33;;;;;;;;;;5038477;28;20446;-67
2021/05/30 09:03:55;;;;;;;10.33;3.73;;;;;;;;;;5032691;28;20379;-68
2021/05/30 09:06:22;;;;;;;6.10;3.17;;;;;;;;;;5033165;28;20496;-67
2021/05/30 09:08:52;;;;;;;2.97;2.50;;;;;;;;;;5034903;28;20511;-68
2021/05/30 09:11:38;;;;;;;6.70;3.50;;;;;;;;;;5034210;28;20890;-67
2021/05/30 09:14:07;;;;;;;3.60;2.37;;;;;;;;;;5042242;28;20417;-68
2021/05/30 09:16:50;;;;;;;4.50;2.30;;;;;;;;;;5057905;28;20424;-68
2021/05/30 09:19:31;;;;;;;5.03;3.00;;;;;;;;;;5075826;28;20396;-68
2021/05/30 09:22:15;;;;;;;3.47;2.23;;;;;;;;;;5073836;28;20448;-68
2021/05/30 09:24:42;;;;;;;2.80;1.90;;;;;;;;;;5075632;28;20401;-68
2021/05/30 09:27:11;;;;;;;8.70;2.70;;;;;;;;;;5073180;28;20456;-68
2021/05/30 09:29:38;;;;;;;7.27;2.50;;;;;;;;;;5075797;28;20428;-68
2021/05/30 09:32:04;;;;;;;3.70;2.30;;;;;;;;;;5049457;28;20778;-68
2021/05/30 09:34:34;;;;;;;5.90;2.63;;;;;;;;;;5055389;28;20490;-68
2021/05/30 09:37:00;;;;;;;4.43;2.80;;;;;;;;;;5054415;28;20848;-68
2021/05/30 09:39:33;;;;;;;6.30;3.07;;;;;;;;;;5055588;28;20902;-68
2021/05/30 09:42:18;;;;;;;9.03;2.93;;;;;;;;;;5064935;28;20456;-68
2021/05/30 09:44:54;;;;;;;3.10;2.43;;;;;;;;;;5057290;28;20443;-68
2021/05/30 09:47:49;;;;;;;3.27;2.50;;;;;;;;;;5065212;28;20445;-68
2021/05/30 09:50:19;;;;;;;4.80;2.50;;;;;;;;;;5038582;28;20504;-68
2021/05/30 09:52:49;;;;;;;4.00;3.00;;;;;;;;;;5064920;28;20439;-68
2021/05/30 09:55:28;;;;;;;3.60;2.30;;;;;;;;;;5075033;28;20408;-68
2021/05/30 09:58:03;;;;;;;2.60;1.80;;;;;;;;;;5072940;28;20456;-68
2021/05/30 10:00:29;;;;;;;3.23;2.50;;;;;;;;;;5067359;28;20552;-68
2021/05/30 10:02:56;;;;;;;3.50;2.30;;;;;;;;;;5041578;28;20517;-68
2021/05/30 10:05:22;;;;;;;2.73;2.00;;;;;;;;;;5034850;28;20411;-68
2021/05/30 10:07:49;;;;;;;3.00;2.10;;;;;;;;;;5045944;28;20454;-68
2021/05/30 10:10:15;;;;;;;5.30;2.80;;;;;;;;;;5055337;28;20822;-68
2021/05/30 10:12:41;;;;;;;5.27;2.23;;;;;;;;;;5063309;28;20486;-68
2021/05/30 10:15:08;;;;;;;2.90;2.20;;;;;;;;;;5072429;28;20474;-68
2021/05/30 10:17:36;;;;;;;5.83;2.67;;;;;;;;;;5072506;28;20807;-68
2021/05/30 10:20:03;;;;;;;3.17;2.67;;;;;;;;;;5074585;28;20396;-67
2021/05/30 10:22:29;;;;;;;3.77;2.47;;;;;;;;;;5064455;28;20794;-68
2021/05/30 10:24:56;;;;;;;3.23;2.27;;;;;;;;;;5054395;28;20799;-68
2021/05/30 10:27:30;;;;;;;5.63;2.30;;;;;;;;;;5047192;28;20461;-68
2021/05/30 10:30:13;;;;;;;4.73;2.67;;;;;;;;;;5034462;28;20401;-68
2021/05/30 10:32:48;;;;;;;3.80;3.10;;;;;;;;;;5034479;28;20426;-68
2021/05/30 10:35:19;;;;;;;3.30;2.77;;;;;;;;;;5034323;28;20379;-68
2021/05/30 10:37:55;;;;;;;4.13;2.60;;;;;;;;;;5043309;28;20448;-68
2021/05/30 10:40:24;;;;;;;3.37;2.87;;;;;;;;;;5054096;28;20429;-68
2021/05/30 10:45:35;;;;;;;8.40;2.80;;;;;;;;;;5034028;28;20871;-68
2021/05/30 10:48:04;;;;;;;3.70;2.60;;;;;;;;;;5042186;28;20441;-68
2021/05/30 10:50:37;;;;;;;5.50;2.97;;;;;;;;;;5054180;28;20409;-69
2021/05/30 10:53:03;;;;;;;4.17;2.27;;;;;;;;;;5063806;28;20421;-68
2021/05/30 10:55:30;;;;;;;3.60;2.53;;;;;;;;;;5074091;28;20476;-68
2021/05/30 10:57:57;;;;;;;4.83;3.13;;;;;;;;;;5037468;28;20538;-68
2021/05/30 11:00:23;;;;;;;3.60;2.37;;;;;;;;;;5033773;28;21014;-68
2021/05/30 11:03:02;;;;;;;4.70;2.87;;;;;;;;;;5050438;28;20523;-68
2021/05/30 11:05:42;;;;;;;4.30;2.80;;;;;;;;;;5055763;28;20458;-69
2021/05/30 11:08:08;;;;;;;6.10;2.90;;;;;;;;;;5071429;28;20444;-68
2021/05/30 11:10:35;;;;;;;3.80;2.27;;;;;;;;;;5073749;28;20405;-68
2021/05/30 11:13:03;;;;;;;5.17;3.00;;;;;;;;;;5056666;28;20441;-68
2021/05/30 11:15:30;;;;;;;4.10;2.77;;;;;;;;;;5053452;28;20830;-68
2021/05/30 11:17:57;;;;;;;4.17;2.80;;;;;;;;;;5051638;28;20507;-68
2021/05/30 11:20:25;;;;;;;3.17;2.30;;;;;;;;;;5054760;28;20450;-69
2021/05/30 11:22:51;;;;;;;7.20;2.77;;;;;;;;;;5071576;28;20851;-68
2021/05/30 11:25:18;;;;;;;4.03;2.60;;;;;;;;;;5073843;28;20405;-68
2021/05/30 11:27:58;;;;;;;3.50;2.60;;;;;;;;;;5071251;28;20770;-68
2021/05/30 11:30:53;;;;;;;4.77;2.90;;;;;;;;;;5073741;28;20752;-68
2021/05/30 11:33:23;;;;;;;6.27;2.70;;;;;;;;;;5028047;28;20822;-68
2021/05/30 11:35:53;;;;;;;3.77;2.77;;;;;;;;;;5015793;28;20419;-68
2021/05/30 11:38:20;;;;;;;3.33;2.53;;;;;;;;;;5033264;28;20455;-68
2021/05/30 11:40:46;;;;;;;4.90;2.83;;;;;;;;;;5015567;28;20450;-68
2021/05/30 11:43:13;;;;;;;4.10;2.70;;;;;;;;;;5033425;28;20454;-68
2021/05/30 11:45:42;;;;;;;4.33;2.87;;;;;;;;;;5033550;28;20765;-69
2021/05/30 11:48:09;;;;;;;2.70;1.97;;;;;;;;;;5051424;28;20554;-68
2021/05/30 11:50:40;;;;;;;4.20;2.97;;;;;;;;;;5073058;28;20424;-68
2021/05/30 11:53:06;;;;;;;6.70;2.70;;;;;;;;;;5043961;28;20512;-68
2021/05/30 11:55:33;;;;;;;6.70;3.10;;;;;;;;;;5054444;28;20518;-68
2021/05/30 11:58:05;;;;;;;4.30;3.20;;;;;;;;;;5059492;28;20457;-69
2021/05/30 12:00:31;;;;;;;3.93;2.87;;;;;;;;;;5072874;28;20435;-68
2021/05/30 12:02:57;;;;;;;5.93;3.70;;;;;;;;;;5070980;28;20468;-68
2021/05/30 12:05:23;;;;;;;3.70;2.67;;;;;;;;;;5073268;28;20401;-68
2021/05/30 12:07:50;;;;;;;2.83;2.40;;;;;;;;;;5071025;28;20972;-68
2021/05/30 12:10:17;;;;;;;4.40;3.17;;;;;;;;;;5073478;28;20397;-68
2021/05/30 12:12:43;;;;;;;3.97;2.60;;;;;;;;;;5071225;28;20433;-68
2021/05/30 12:15:10;;;;;;;3.00;2.50;;;;;;;;;;5073363;28;20401;-68
2021/05/30 12:17:37;;;;;;;5.37;3.33;;;;;;;;;;5070976;28;20535;-68
2021/05/30 12:20:06;;;;;;;4.47;2.10;;;;;;;;;;5073348;28;20402;-68
2021/05/30 12:22:33;;;;;;;4.10;2.67;;;;;;;;;;5047512;28;20433;-68
2021/05/30 12:24:59;;;;;;;5.63;3.20;;;;;;;;;;5033348;28;20403;-68
2021/05/30 12:27:26;;;;;;;5.83;2.60;;;;;;;;;;5035818;28;20438;-68
2021/05/30 12:29:53;;;;;;;4.40;2.87;;;;;;;;;;5073028;28;20397;-68
2021/05/30 12:32:20;;;;;;;3.37;2.40;;;;;;;;;;5069758;28;20448;-68
2021/05/30 12:34:46;;;;;;;4.40;2.53;;;;;;;;;;5014835;28;20406;-68
2021/05/30 12:37:13;;;;;;;3.40;2.60;;;;;;;;;;5032703;28;20430;-68
2021/05/30 12:39:39;;;;;;;3.70;2.53;;;;;;;;;;5033033;28;20419;-67
2021/05/30 12:42:06;;;;;;;3.37;2.30;;;;;;;;;;5032725;28;20810;-68
2021/05/30 12:44:52;;;;;;;6.57;2.17;;;;;;;;;;5032516;28;20437;-68
2021/05/30 12:47:21;;;;;;;4.70;3.20;;;;;;;;;;5035019;28;20516;-69
2021/05/30 12:50:00;;;;;;;4.57;2.70;;;;;;;;;;5036547;28;20395;-68
2021/05/30 12:52:26;;;;;;;3.57;2.50;;;;;;;;;;5055035;28;20427;-67
2021/05/30 12:55:11;;;;;;;3.37;2.80;;;;;;;;;;5036731;28;20410;-68
2021/05/30 12:57:38;;;;;;;4.03;3.03;;;;;;;;;;5039955;28;20536;-68
2021/05/30 13:00:26;;;;;;;6.90;2.70;;;;;;;;;;5076586;28;20484;-68
2021/05/30 13:02:55;;;;;;;3.50;2.80;;;;;;;;;;5073663;28;20432;-68
2021/05/30 13:05:31;;;;;;;3.63;2.80;;;;;;;;;;5076755;28;20405;-67
2021/05/30 13:07:57;;;;;;;4.43;2.20;;;;;;;;;;5069688;28;20432;-68
2021/05/30 13:10:23;;;;;;;3.30;2.50;;;;;;;;;;5038206;28;20844;-68
2021/05/30 13:12:49;;;;;;;3.30;2.30;;;;;;;;;;5054332;28;20764;-68
2021/05/30 13:15:17;;;;;;;4.93;2.50;;;;;;;;;;5055161;28;20483;-67
2021/05/30 13:17:44;;;;;;;3.83;2.63;;;;;;;;;;5054708;28;20445;-68
2021/05/30 13:20:10;;;;;;;3.70;2.37;;;;;;;;;;5055866;28;20958;-68
2021/05/30 13:22:37;;;;;;;6.70;2.90;;;;;;;;;;5055308;28;20409;-68
2021/05/30 13:25:04;;;;;;;4.40;2.13;;;;;;;;;;5075743;28;20401;-68
2021/05/30 13:27:31;;;;;;;3.40;2.50;;;;;;;;;;5073818;28;20435;-68
2021/05/30 13:30:05;;;;;;;4.50;2.47;;;;;;;;;;5075874;28;20957;-68
2021/05/30 13:32:31;;;;;;;3.80;2.50;;;;;;;;;;5074481;28;20400;-68
2021/05/30 13:34:57;;;;;;;4.73;3.20;;;;;;;;;;5056200;28;20426;-68
2021/05/30 13:37:23;;;;;;;3.70;2.80;;;;;;;;;;5035514;28;20423;-68
2021/05/30 13:39:49;;;;;;;5.13;2.10;;;;;;;;;;5072370;28;20823;-68
2021/05/30 13:42:15;;;;;;;6.20;3.70;;;;;;;;;;5075689;28;20445;-68
2021/05/30 13:44:41;;;;;;;4.40;2.70;;;;;;;;;;5073374;28;20432;-68
2021/05/30 13:47:07;;;;;;;4.67;3.00;;;;;;;;;;5075475;28;20508;-68
2021/05/30 13:49:34;;;;;;;3.03;2.40;;;;;;;;;;5042057;28;20418;-68
2021/05/30 13:52:00;;;;;;;12.30;3.63;;;;;;;;;;5054135;28;20428;-68
2021/05/30 13:54:26;;;;;;;4.80;2.50;;;;;;;;;;5037717;28;21001;-68
2021/05/30 13:56:52;;;;;;;3.60;3.00;;;;;;;;;;5035461;28;20763;-67
2021/05/30 13:59:19;;;;;;;4.10;2.63;;;;;;;;;;5061199;28;20909;-68
2021/05/30 14:01:45;;;;;;;3.93;2.77;;;;;;;;;;5056559;28;20984;-68
2021/05/30 14:04:11;;;;;;;6.60;3.37;;;;;;;;;;5066018;28;20425;-68
2021/05/30 14:06:38;;;;;;;4.73;2.60;;;;;;;;;;5074986;28;20431;-68
2021/05/30 14:09:05;;;;;;;3.20;2.30;;;;;;;;;;5063409;28;20500;-68
2021/05/30 14:11:32;;;;;;;4.00;2.53;;;;;;;;;;5057081;28;20439;-68
2021/05/30 14:13:58;;;;;;;3.37;2.33;;;;;;;;;;5055095;28;20436;-68
2021/05/30 14:16:24;;;;;;;5.50;2.77;;;;;;;;;;5074939;28;20898;-69
2021/05/30 14:18:50;;;;;;;4.60;2.63;;;;;;;;;;5055761;28;20592;-68
2021/05/30 14:21:16;;;;;;;3.73;2.60;;;;;;;;;;5035465;28;20450;-69
2021/05/30 14:23:42;;;;;;;4.57;2.40;;;;;;;;;;5053342;28;20487;-68
2021/05/30 14:26:08;;;;;;;3.80;3.00;;;;;;;;;;5054434;28;20391;-68
2021/05/30 14:28:34;;;;;;;4.13;2.60;;;;;;;;;;5084340;22;20851;-67
2021/05/30 14:31:00;;;;;;;2.70;2.00;;;;;;;;;;5074630;28;20932;-67
2021/05/30 14:33:26;;;;;;;3.50;2.30;;;;;;;;;;5073283;28;20478;-67
2021/05/30 14:35:52;;;;;;;3.60;2.17;;;;;;;;;;5075201;28;20396;-67
2021/05/30 14:38:18;;;;;;;3.80;2.30;;;;;;;;;;5072868;28;20448;-67
2021/05/30 14:40:44;;;;;;;3.33;2.40;;;;;;;;;;5075138;28;20855;-67
2021/05/30 14:43:11;;;;;;;12.70;3.40;;;;;;;;;;5072275;28;20436;-67
2021/05/30 14:45:37;;;;;;;4.90;2.20;;;;;;;;;;5074993;28;20484;-68
2021/05/30 14:48:03;;;;;;;3.50;2.53;;;;;;;;;;5073734;28;20401;-68